This is the latest recevied weather packets stored in our database for station/object WX7FGZ-5. If no packets are shown the sender has not sent any weather packets the latest 10 day(s).
| Time | Temp. | Humidity | Pressure | Rain* | Wind** | Luminosity | Snow |
|---|---|---|---|---|---|---|---|
| 1778074806 | -2.22° C | 87% | 1022.1 hPa | 0 mm | - | 195 W/m² | - |
| 1778074590 | -2.78° C | 87% | 1022.4 hPa | 0 mm | - | 188 W/m² | - |
| 1778074505 | -2.78° C | 87% | 1022.4 hPa | 0 mm | - | 188 W/m² | - |
| 1778074293 | -3.33° C | 86% | 1022.2 hPa | 0 mm | - | 165 W/m² | - |
| 1778074205 | -3.33° C | 86% | 1022.2 hPa | 0 mm | - | 165 W/m² | - |
| 1778073906 | -3.33° C | 86% | 1022.1 hPa | 0 mm | - | 137 W/m² | - |
| 1778073605 | -3.33° C | 87% | 1022 hPa | 0 mm | - | 121 W/m² | - |
| 1778073087 | -3.89° C | 90% | 1022 hPa | 0 mm | - | 83 W/m² | - |
| 1778073006 | -3.89° C | 90% | 1022 hPa | 0 mm | - | 83 W/m² | - |
| 1778072705 | -4.44° C | 91% | 1021.9 hPa | 0 mm | - | 70 W/m² | - |
| 1778072416 | -5° C | 91% | 1021.8 hPa | 0 mm | - | 37 W/m² | - |
| 1778072106 | -5.56° C | 90% | 1021.9 hPa | 0 mm | - | 28 W/m² | - |
| 1778071805 | -5.56° C | 90% | 1021.7 hPa | 0 mm | - | 21 W/m² | - |
| 1778071206 | -5.56° C | 89% | 1021.7 hPa | 0 mm | - | 9 W/m² | - |
| 1778070905 | -5.56° C | 89% | 1021.6 hPa | 0 mm | - | 7 W/m² | - |
| 1778070605 | -5° C | 90% | 1021.6 hPa | 0 mm | - | 0 W/m² | - |
| 1778070306 | -5° C | 90% | 1021.4 hPa | 0 mm | - | 0 W/m² | - |
| 1778070005 | -5° C | 90% | 1021.4 hPa | 0 mm | - | 0 W/m² | - |
| 1778069406 | -5° C | 90% | 1021.2 hPa | 0 mm | - | 0 W/m² | - |
| 1778068806 | -4.44° C | 91% | 1021.1 hPa | 0 mm | - | 0 W/m² | - |
| 1778068205 | -4.44° C | 90% | 1021 hPa | 0 mm | - | 0 W/m² | - |
| 1778067606 | -4.44° C | 90% | 1021.1 hPa | 0 mm | - | 0 W/m² | - |
| 1778067305 | -3.89° C | 91% | 1021.1 hPa | 0 mm | - | 0 W/m² | - |
| 1778067224 | -3.89° C | 91% | 1021.6 hPa | 0 mm | - | 0 W/m² | - |
| 1778067005 | -3.89° C | 91% | 1021.6 hPa | 0 mm | - | 0 W/m² | - |
* Rain latest hour (hover to see other rain measurements)
** Current wind speed in m/s (hover to see current wind gust speed)